Time;durP1;ratioP1;P1;durP2;ratioP2;P2;SDS_P1;SDS_P2;PMS_P1;PMS_P2;Temp;Humidity;BMP_temperature;BMP_pressure;BME280_temperature;BME280_humidity;BME280_pressure;Samples;Min_cycle;Max_cycle;Signal;HPM_P1;HPM_P2
2022/04/08 00:02:06;;;;;;;3.83;0.63;;;18.20;57.20;;;;;;4994784;28;20050;-75
2022/04/08 00:04:32;;;;;;;3.58;0.47;;;18.20;57.10;;;;;;4996477;28;20097;-77
2022/04/08 00:07:01;;;;;;;5.07;0.70;;;18.30;57.00;;;;;;4997021;28;20133;-75
2022/04/08 00:09:27;;;;;;;4.78;0.63;;;18.30;57.00;;;;;;4996762;28;20049;-77
2022/04/08 00:11:53;;;;;;;4.90;0.80;;;18.30;56.90;;;;;;4996780;28;20054;-77
2022/04/08 00:14:18;;;;;;;4.43;0.57;;;18.30;57.00;;;;;;4996777;28;20054;-76
2022/04/08 00:16:45;;;;;;;3.53;0.57;;;18.30;56.80;;;;;;4996394;28;20128;-75
2022/04/08 00:19:11;;;;;;;3.92;0.52;;;18.30;56.80;;;;;;4996506;28;20386;-74
2022/04/08 00:21:36;;;;;;;4.07;0.50;;;18.40;57.00;;;;;;4996350;28;20046;-73
2022/04/08 00:24:03;;;;;;;6.80;0.65;;;18.40;57.10;;;;;;4996290;28;20046;-74
2022/04/08 00:26:29;;;;;;;2.40;0.35;;;18.40;56.70;;;;;;4996435;28;20049;-75
2022/04/08 00:28:54;;;;;;;3.35;0.60;;;18.30;56.30;;;;;;4988559;28;20104;-77
2022/04/08 00:31:20;;;;;;;5.18;0.60;;;18.30;56.10;;;;;;4998731;28;20089;-75
2022/04/08 00:33:46;;;;;;;7.10;0.70;;;18.30;56.50;;;;;;5015564;28;20085;-76
2022/04/08 00:36:12;;;;;;;5.90;0.50;;;18.30;56.40;;;;;;4998405;28;20092;-75
2022/04/08 00:38:37;;;;;;;4.18;0.60;;;18.30;56.70;;;;;;5013044;28;20063;-77
2022/04/08 00:41:03;;;;;;;8.30;0.73;;;18.30;57.00;;;;;;4998719;28;20072;-74
2022/04/08 00:43:34;;;;;;;7.47;0.98;;;18.30;57.20;;;;;;5015985;28;20137;-76
2022/04/08 00:46:01;;;;;;;3.15;0.85;;;18.30;57.30;;;;;;5015593;28;20061;-76
2022/04/08 00:48:26;;;;;;;5.35;1.05;;;18.30;57.30;;;;;;5015885;28;20050;-78
2022/04/08 00:50:53;;;;;;;3.95;0.40;;;18.30;57.30;;;;;;5015910;28;20330;-79
2022/04/08 00:53:20;;;;;;;5.55;0.57;;;18.30;57.50;;;;;;5015779;28;20089;-77
2022/04/08 00:55:46;;;;;;;5.03;0.75;;;18.30;57.60;;;;;;4999029;28;20140;-77
2022/04/08 00:58:13;;;;;;;5.65;0.90;;;18.20;57.70;;;;;;5001153;28;20133;-76
2022/04/08 01:00:39;;;;;;;3.58;0.70;;;18.20;57.90;;;;;;4995493;28;20462;-77
2022/04/08 01:03:25;;;;;;;7.30;0.73;;;18.30;58.10;;;;;;4995349;28;20051;-79
2022/04/08 01:06:26;;;;;;;6.63;0.93;;;18.20;58.00;;;;;;4977351;28;20046;-78
2022/04/08 01:08:55;;;;;;;9.52;0.80;;;18.20;57.80;;;;;;4993645;28;20050;-77
2022/04/08 01:11:22;;;;;;;7.72;0.85;;;18.20;58.10;;;;;;4982229;28;20416;-78
2022/04/08 01:13:47;;;;;;;6.05;0.70;;;18.20;58.50;;;;;;4995243;28;20061;-79
2022/04/08 01:16:13;;;;;;;9.82;1.00;;;18.30;58.60;;;;;;4995422;28;20129;-78
2022/04/08 01:18:42;;;;;;;4.80;0.70;;;18.20;58.50;;;;;;4996057;28;20050;-77
2022/04/08 01:21:07;;;;;;;5.88;0.88;;;18.20;58.30;;;;;;4996232;28;20370;-75
2022/04/08 01:23:34;;;;;;;7.53;1.20;;;18.20;58.90;;;;;;4995749;28;20047;-75
2022/04/08 01:26:04;;;;;;;7.78;1.00;;;18.20;58.70;;;;;;4995753;28;20154;-74
2022/04/08 01:28:30;;;;;;;11.23;1.33;;;18.20;58.30;;;;;;5011082;28;20086;-75
2022/04/08 01:30:56;;;;;;;7.32;0.85;;;18.20;57.40;;;;;;4998533;28;20126;-76
2022/04/08 01:33:22;;;;;;;4.70;1.25;;;18.20;56.90;;;;;;4997886;28;20061;-77
2022/04/08 01:35:47;;;;;;;8.13;1.20;;;18.10;56.10;;;;;;5015760;28;20057;-70
2022/04/08 01:38:13;;;;;;;6.18;1.20;;;18.20;56.30;;;;;;4997839;28;20053;-78
2022/04/08 01:40:39;;;;;;;4.88;0.90;;;18.20;56.70;;;;;;5015156;28;20046;-76
2022/04/08 01:43:05;;;;;;;13.15;1.58;;;18.10;56.70;;;;;;5014887;28;20037;-75
2022/04/08 01:45:30;;;;;;;10.68;1.27;;;18.10;56.90;;;;;;4997038;28;20057;-78
2022/04/08 01:47:56;;;;;;;9.45;1.98;;;18.20;57.00;;;;;;5015132;28;20142;-77
2022/04/08 01:50:23;;;;;;;7.18;1.35;;;18.20;56.90;;;;;;5015029;28;20049;-78
2022/04/08 01:52:49;;;;;;;9.45;0.90;;;18.20;56.90;;;;;;5014930;28;20108;-77
2022/04/08 01:55:15;;;;;;;10.07;1.98;;;18.20;57.30;;;;;;5014966;28;20529;-77
2022/04/08 01:57:41;;;;;;;12.35;1.77;;;18.30;57.90;;;;;;4993398;28;20056;-77
2022/04/08 02:00:09;;;;;;;8.30;1.73;;;18.30;58.20;;;;;;4977774;28;20046;-77
2022/04/08 02:02:35;;;;;;;14.30;1.40;;;18.40;58.70;;;;;;4994782;28;20117;-80
2022/04/08 02:05:01;;;;;;;7.45;1.35;;;18.50;58.90;;;;;;4978015;28;20432;-75
2022/04/08 02:07:27;;;;;;;16.55;2.03;;;18.60;59.30;;;;;;4977946;28;20374;-78
2022/04/08 02:09:53;;;;;;;11.45;1.52;;;18.70;59.00;;;;;;4977789;28;20030;-75
2022/04/08 02:12:19;;;;;;;6.85;1.70;;;18.80;58.50;;;;;;4994612;28;20043;-75
2022/04/08 02:14:44;;;;;;;10.82;2.03;;;18.90;58.80;;;;;;4997694;28;20050;-76
2022/04/08 02:17:10;;;;;;;10.48;1.98;;;18.60;57.90;;;;;;4998915;28;20046;-74
2022/04/08 02:19:36;;;;;;;10.75;1.60;;;18.80;59.10;;;;;;4998679;28;20053;-76
2022/04/08 02:22:03;;;;;;;10.93;1.77;;;18.90;59.70;;;;;;4998834;28;20053;-74
2022/04/08 02:24:29;;;;;;;11.52;1.88;;;18.90;59.70;;;;;;4998704;28;20046;-75
2022/04/08 02:26:55;;;;;;;9.20;1.30;;;18.90;59.80;;;;;;4998445;28;20465;-76
2022/04/08 02:29:21;;;;;;;8.02;1.33;;;19.00;60.40;;;;;;4998691;28;20129;-76
2022/04/08 02:31:47;;;;;;;10.98;2.03;;;19.00;60.60;;;;;;4981294;28;20046;-76
2022/04/08 02:34:13;;;;;;;21.63;2.40;;;19.20;60.40;;;;;;4981826;28;20050;-75
2022/04/08 02:36:38;;;;;;;6.75;1.30;;;19.30;61.10;;;;;;4981840;28;20054;-77
2022/04/08 02:39:04;;;;;;;8.02;1.83;;;19.10;59.50;;;;;;4981404;28;20046;-76
2022/04/08 02:41:30;;;;;;;9.20;1.65;;;19.20;60.20;;;;;;4998291;28;20043;-76
2022/04/08 02:43:56;;;;;;;11.63;2.17;;;19.00;58.50;;;;;;4981848;28;20366;-75
2022/04/08 02:46:22;;;;;;;9.98;1.48;;;19.20;59.70;;;;;;4998630;28;20054;-74
2022/04/08 02:48:47;;;;;;;6.20;1.17;;;19.40;60.10;;;;;;4981037;28;20315;-75
2022/04/08 02:51:13;;;;;;;8.68;1.40;;;19.50;59.30;;;;;;4998133;28;20137;-77
2022/04/08 02:53:39;;;;;;;5.72;1.20;;;19.70;59.00;;;;;;4998251;28;20046;-77
2022/04/08 02:56:07;;;;;;;18.27;1.95;;;19.80;58.50;;;;;;4998485;28;20057;-79
2022/04/08 02:58:33;;;;;;;9.55;1.80;;;20.00;57.90;;;;;;4980273;28;20053;-77
2022/04/08 03:00:59;;;;;;;10.02;1.27;;;20.10;57.80;;;;;;4997835;28;20046;-80
2022/04/08 03:03:28;;;;;;;10.10;1.50;;;20.20;57.50;;;;;;4998119;28;20031;-80
2022/04/08 03:05:55;;;;;;;7.00;1.55;;;20.30;57.30;;;;;;4995344;28;20052;-75
2022/04/08 03:08:21;;;;;;;12.85;1.85;;;20.40;56.90;;;;;;4998421;28;20430;-77
2022/04/08 03:10:47;;;;;;;18.75;2.22;;;20.50;56.40;;;;;;4998222;28;20053;-79
2022/04/08 03:13:13;;;;;;;10.63;1.77;;;20.50;56.80;;;;;;4964453;28;20050;-78
2022/04/08 03:15:45;;;;;;;11.85;1.70;;;20.50;56.00;;;;;;4997710;28;20362;-83
2022/04/08 03:18:11;;;;;;;7.55;1.30;;;20.40;55.60;;;;;;4980906;28;20425;-75
2022/04/08 03:20:37;;;;;;;8.85;1.38;;;20.40;55.30;;;;;;4997673;28;20050;-78
2022/04/08 03:23:03;;;;;;;8.40;0.90;;;20.40;54.40;;;;;;4979957;28;20038;-76
2022/04/08 03:25:28;;;;;;;12.77;1.65;;;20.30;55.00;;;;;;4963196;28;20053;-78
2022/04/08 03:27:54;;;;;;;9.35;1.55;;;20.40;55.10;;;;;;4995733;28;20453;-80
2022/04/08 03:30:20;;;;;;;11.00;1.67;;;20.40;56.10;;;;;;4999140;28;20465;-77
2022/04/08 03:32:45;;;;;;;8.65;1.00;;;20.50;56.40;;;;;;4999459;28;20045;-78
2022/04/08 03:35:11;;;;;;;10.07;1.48;;;20.50;56.20;;;;;;4999366;28;20056;-80
2022/04/08 03:37:37;;;;;;;7.28;0.80;;;20.60;56.10;;;;;;5016846;28;20054;-77
2022/04/08 03:40:03;;;;;;;9.82;1.13;;;20.60;56.20;;;;;;5016571;28;20450;-78
2022/04/08 03:42:29;;;;;;;4.65;0.57;;;20.60;55.80;;;;;;5013784;28;20089;-80
2022/04/08 03:44:54;;;;;;;7.82;0.90;;;20.70;56.50;;;;;;5016704;28;20104;-78
2022/04/08 03:47:21;;;;;;;5.38;0.82;;;20.70;56.40;;;;;;5017354;28;20062;-77
2022/04/08 03:49:47;;;;;;;6.47;1.00;;;20.80;56.30;;;;;;5016900;28;20127;-78
2022/04/08 03:52:13;;;;;;;7.68;1.27;;;20.80;56.10;;;;;;5016762;28;20445;-79
2022/04/08 03:54:39;;;;;;;3.15;0.80;;;20.80;56.20;;;;;;4999662;28;20064;-79
2022/04/08 03:57:06;;;;;;;5.28;0.85;;;20.80;56.30;;;;;;5005265;28;20046;-77
2022/04/08 03:59:31;;;;;;;3.83;0.80;;;20.80;55.60;;;;;;4996643;28;20073;-77
2022/04/08 04:01:58;;;;;;;11.55;0.93;;;20.50;51.80;;;;;;5004714;28;20042;-79
2022/04/08 04:04:24;;;;;;;13.18;1.23;;;19.30;50.50;;;;;;5016569;28;20334;-78
2022/04/08 04:06:50;;;;;;;10.25;1.25;;;19.30;55.60;;;;;;5016379;28;20042;-80
2022/04/08 04:09:16;;;;;;;14.63;2.05;;;19.50;56.50;;;;;;5016436;28;20359;-78
2022/04/08 04:11:42;;;;;;;10.02;1.10;;;19.70;56.30;;;;;;5016103;28;20057;-79
2022/04/08 04:14:08;;;;;;;10.73;1.23;;;19.90;55.80;;;;;;4998830;28;20119;-78
2022/04/08 04:16:34;;;;;;;7.32;1.23;;;20.10;55.30;;;;;;5016222;28;20049;-78
2022/04/08 04:19:00;;;;;;;6.72;0.98;;;20.30;55.10;;;;;;5015624;28;20042;-78
2022/04/08 04:21:26;;;;;;;8.25;1.05;;;20.40;54.70;;;;;;4982693;28;20170;-77
2022/04/08 04:23:51;;;;;;;6.68;1.13;;;20.40;53.70;;;;;;4983474;28;20091;-76
2022/04/08 04:26:17;;;;;;;6.43;1.10;;;20.50;53.70;;;;;;4998571;28;20416;-80
2022/04/08 04:28:43;;;;;;;7.10;0.70;;;20.50;54.10;;;;;;4982388;28;20053;-80
2022/04/08 04:31:09;;;;;;;5.78;0.77;;;20.60;54.90;;;;;;5014469;28;20050;-78
2022/04/08 04:33:34;;;;;;;12.45;0.98;;;20.70;54.10;;;;;;4978850;28;20096;-77
2022/04/08 04:36:00;;;;;;;4.50;0.73;;;20.70;53.70;;;;;;4996366;28;20132;-79
2022/04/08 04:38:26;;;;;;;6.30;0.77;;;20.70;53.20;;;;;;4996446;28;20057;-79
2022/04/08 04:40:52;;;;;;;6.35;0.60;;;20.80;52.60;;;;;;4996668;28;20550;-78
2022/04/08 04:43:18;;;;;;;5.65;0.82;;;20.80;52.80;;;;;;5011451;28;20057;-79
2022/04/08 04:45:43;;;;;;;9.07;0.82;;;20.80;52.50;;;;;;4978868;28;20101;-78
2022/04/08 04:48:11;;;;;;;6.82;0.68;;;20.80;52.60;;;;;;4996384;28;20058;-77
2022/04/08 04:50:40;;;;;;;3.75;0.47;;;20.90;52.40;;;;;;4978987;28;20101;-77
2022/04/08 04:53:06;;;;;;;2.92;0.45;;;20.90;52.30;;;;;;4996430;28;20123;-77
2022/04/08 04:55:32;;;;;;;5.07;0.93;;;20.90;52.40;;;;;;4979696;28;20110;-77
2022/04/08 04:57:58;;;;;;;7.15;0.77;;;20.90;52.20;;;;;;4998668;28;20060;-79
2022/04/08 05:00:24;;;;;;;4.72;0.60;;;21.00;51.70;;;;;;4999031;28;20151;-74
2022/04/08 05:02:50;;;;;;;4.85;0.70;;;20.90;51.80;;;;;;5015628;28;20361;-74
2022/04/08 05:05:15;;;;;;;7.75;0.90;;;20.90;52.40;;;;;;4998319;28;20049;-72
2022/04/08 05:07:41;;;;;;;2.10;0.43;;;20.90;52.40;;;;;;5015218;28;20493;-73
2022/04/08 05:10:08;;;;;;;3.38;0.50;;;20.80;52.00;;;;;;5015182;28;20061;-76
2022/04/08 05:12:37;;;;;;;4.25;0.50;;;20.80;51.40;;;;;;5015898;28;20143;-77
2022/04/08 05:15:06;;;;;;;4.18;0.98;;;20.70;50.80;;;;;;5015306;28;20050;-78
2022/04/08 05:17:36;;;;;;;8.45;0.57;;;20.60;50.60;;;;;;5015252;28;20045;-77
2022/04/08 05:20:03;;;;;;;8.25;0.90;;;20.30;49.80;;;;;;5015572;28;20483;-78
2022/04/08 05:22:29;;;;;;;2.78;0.80;;;20.30;50.40;;;;;;5015391;28;20127;-77
2022/04/08 05:24:54;;;;;;;6.60;0.73;;;20.30;50.80;;;;;;5015261;28;20453;-76
2022/04/08 05:27:20;;;;;;;7.00;0.70;;;20.40;51.10;;;;;;5014177;28;20045;-79
2022/04/08 05:29:46;;;;;;;3.47;0.70;;;20.50;51.50;;;;;;5015464;28;20085;-76
2022/04/08 05:32:11;;;;;;;2.17;0.52;;;20.60;51.80;;;;;;5015163;28;20112;-77
2022/04/08 05:34:37;;;;;;;11.80;0.80;;;20.60;52.10;;;;;;5015342;28;20046;-76
2022/04/08 05:37:03;;;;;;;6.47;0.85;;;20.60;52.20;;;;;;5015727;28;20042;-75
2022/04/08 05:39:28;;;;;;;4.18;1.08;;;20.70;53.20;;;;;;5014895;28;20096;-78
2022/04/08 05:41:54;;;;;;;5.53;0.77;;;20.70;52.60;;;;;;5015465;28;20125;-79
2022/04/08 05:44:20;;;;;;;7.15;1.33;;;20.40;51.60;;;;;;4997673;28;20038;-79
2022/04/08 05:46:45;;;;;;;6.80;0.88;;;20.60;52.90;;;;;;5014343;28;20054;-75
2022/04/08 05:49:11;;;;;;;6.82;0.80;;;20.60;52.90;;;;;;5016878;28;20484;-72
2022/04/08 05:51:37;;;;;;;8.85;1.33;;;20.70;53.00;;;;;;5018545;28;20087;-75
2022/04/08 05:54:02;;;;;;;10.10;0.82;;;20.70;53.00;;;;;;5001643;28;20056;-76
2022/04/08 05:56:28;;;;;;;7.10;0.90;;;20.80;53.00;;;;;;5008619;28;20050;-76
2022/04/08 05:58:54;;;;;;;3.17;0.80;;;20.90;53.10;;;;;;4999243;28;20051;-75
2022/04/08 06:01:19;;;;;;;6.88;0.85;;;21.00;53.20;;;;;;5002511;28;20074;-77
2022/04/08 06:03:45;;;;;;;4.00;0.98;;;21.00;52.60;;;;;;5019054;28;20064;-77
2022/04/08 06:06:11;;;;;;;4.93;0.88;;;21.10;52.80;;;;;;5018749;28;20042;-78
2022/04/08 06:08:37;;;;;;;5.75;1.13;;;21.10;52.30;;;;;;5018870;28;20046;-77
2022/04/08 06:11:02;;;;;;;8.80;1.17;;;21.10;52.50;;;;;;4985067;28;20058;-77
2022/04/08 06:13:28;;;;;;;5.13;0.90;;;21.20;52.90;;;;;;5018610;28;20042;-78
2022/04/08 06:15:55;;;;;;;7.35;0.82;;;21.20;52.70;;;;;;5000921;28;20057;-76
2022/04/08 06:18:20;;;;;;;9.75;1.23;;;21.30;53.20;;;;;;5018030;28;20050;-78
2022/04/08 06:20:46;;;;;;;3.50;0.63;;;21.30;53.60;;;;;;5018545;28;20326;-78
2022/04/08 06:23:13;;;;;;;9.18;0.82;;;21.30;53.60;;;;;;5017951;28;20107;-76
2022/04/08 06:25:38;;;;;;;7.05;1.00;;;21.30;53.50;;;;;;5018191;28;20061;-77
2022/04/08 06:28:06;;;;;;;5.53;1.02;;;21.30;53.10;;;;;;5018213;28;20369;-77
2022/04/08 06:30:37;;;;;;;6.78;1.00;;;21.30;53.30;;;;;;5001115;28;20117;-76
2022/04/08 06:33:07;;;;;;;7.78;1.35;;;21.30;53.60;;;;;;4996841;28;20370;-81
2022/04/08 06:35:33;;;;;;;2.58;0.50;;;21.40;53.30;;;;;;4998127;28;20050;-78
2022/04/08 06:38:07;;;;;;;5.93;1.17;;;21.40;53.40;;;;;;4998721;28;20058;-78
2022/04/08 06:40:35;;;;;;;;;;;21.40;53.60;;;;;;4999057;28;20057;-79
2022/04/08 06:43:02;;;;;;;5.22;0.68;;;21.50;53.70;;;;;;4998432;28;19922;-78
2022/04/08 06:45:28;;;;;;;5.57;0.88;;;21.40;53.40;;;;;;4997640;28;20050;-79
2022/04/08 06:47:54;;;;;;;3.92;0.95;;;21.50;53.00;;;;;;4981037;28;20072;-78
2022/04/08 06:50:20;;;;;;;4.35;0.90;;;21.50;53.40;;;;;;4981335;28;20123;-78
2022/04/08 06:52:47;;;;;;;7.65;1.23;;;21.50;53.20;;;;;;4998096;28;20397;-77
2022/04/08 06:55:13;;;;;;;7.13;1.15;;;21.50;53.40;;;;;;4997931;28;20104;-78
2022/04/08 06:57:40;;;;;;;3.35;0.80;;;21.50;52.90;;;;;;4998182;28;20054;-77
2022/04/08 07:00:08;;;;;;;5.22;0.95;;;21.50;53.50;;;;;;4997382;28;20080;-77
2022/04/08 07:02:34;;;;;;;8.52;1.25;;;21.50;53.60;;;;;;4997697;28;20061;-77
2022/04/08 07:05:00;;;;;;;5.53;0.80;;;21.40;53.70;;;;;;4998226;28;20475;-77
2022/04/08 07:07:31;;;;;;;2.88;0.90;;;21.40;53.90;;;;;;4997721;28;20131;-76
2022/04/08 07:09:57;;;;;;;5.75;0.65;;;21.40;54.20;;;;;;4998078;28;20047;-78
2022/04/08 07:12:27;;;;;;;7.38;1.23;;;21.20;52.60;;;;;;4980677;28;20050;-76
2022/04/08 07:14:53;;;;;;;11.75;1.52;;;21.00;52.50;;;;;;4997591;28;20129;-77
2022/04/08 07:17:45;;;;;;;7.57;1.17;;;19.70;51.50;;;;;;4997508;28;20454;-74
2022/04/08 07:20:13;;;;;;;5.47;0.98;;;18.70;55.10;;;;;;4994471;28;20136;-76
2022/04/08 07:22:40;;;;;;;7.63;1.35;;;18.50;56.20;;;;;;4997838;28;20046;-77
2022/04/08 07:25:06;;;;;;;9.77;0.90;;;18.20;58.00;;;;;;4980413;28;20058;-77
2022/04/08 07:27:45;;;;;;;7.03;1.20;;;18.50;59.00;;;;;;4974509;28;20130;-77
2022/04/08 07:30:11;;;;;;;9.60;1.55;;;18.60;59.40;;;;;;4980524;28;20452;-78
2022/04/08 07:32:37;;;;;;;13.80;1.77;;;18.70;59.60;;;;;;4998201;28;20042;-76
2022/04/08 07:35:03;;;;;;;8.75;1.60;;;18.90;60.50;;;;;;4997724;28;20461;-78
2022/04/08 07:37:33;;;;;;;8.00;1.33;;;19.00;60.30;;;;;;4997296;28;20057;-77
2022/04/08 07:39:59;;;;;;;10.20;1.40;;;19.50;59.50;;;;;;4979955;28;20061;-78
2022/04/08 07:42:25;;;;;;;10.68;1.35;;;19.00;61.40;;;;;;4997163;28;20093;-75
2022/04/08 07:44:52;;;;;;;10.85;1.50;;;18.60;62.30;;;;;;4980979;28;20046;-75
2022/04/08 07:47:19;;;;;;;14.15;2.78;;;18.40;63.60;;;;;;4996850;28;20113;-74
2022/04/08 07:49:46;;;;;;;9.68;1.85;;;18.20;64.30;;;;;;4997186;28;20061;-75
2022/04/08 07:52:12;;;;;;;12.48;1.23;;;18.00;65.60;;;;;;4964172;28;20125;-79
2022/04/08 07:54:37;;;;;;;15.82;1.55;;;18.00;65.00;;;;;;4997073;28;20129;-75
2022/04/08 07:57:03;;;;;;;10.35;1.45;;;17.90;65.00;;;;;;5008652;28;20433;-77
2022/04/08 07:59:29;;;;;;;7.43;1.77;;;17.80;65.30;;;;;;4997364;28;20086;-76
2022/04/08 08:01:54;;;;;;;10.25;1.60;;;17.80;65.00;;;;;;5005365;28;20100;-77
2022/04/08 08:04:21;;;;;;;12.48;1.20;;;18.10;64.90;;;;;;5016399;28;20065;-77
2022/04/08 08:06:47;;;;;;;8.00;1.20;;;18.60;63.60;;;;;;4998915;28;20053;-75
2022/04/08 08:09:13;;;;;;;11.68;1.40;;;19.00;62.40;;;;;;4999862;28;20049;-78
2022/04/08 08:11:39;;;;;;;9.55;1.35;;;19.30;61.30;;;;;;5016362;28;20061;-77
2022/04/08 08:14:05;;;;;;;6.10;1.05;;;19.50;60.30;;;;;;4999296;28;20041;-79
2022/04/08 08:16:31;;;;;;;7.18;0.90;;;19.60;59.50;;;;;;4999019;28;20046;-77
2022/04/08 08:18:57;;;;;;;11.23;0.90;;;19.80;58.90;;;;;;5015895;28;20084;-79
2022/04/08 08:21:26;;;;;;;6.50;1.08;;;19.80;58.50;;;;;;5016193;28;20125;-77
2022/04/08 08:23:52;;;;;;;6.15;0.68;;;19.40;59.20;;;;;;4999653;28;20046;-79
2022/04/08 08:26:18;;;;;;;7.50;1.15;;;19.20;59.50;;;;;;5016307;28;20108;-79
2022/04/08 08:28:44;;;;;;;8.18;1.00;;;19.00;59.50;;;;;;4998790;28;20408;-77
2022/04/08 08:31:10;;;;;;;4.22;0.95;;;18.70;60.20;;;;;;4996791;28;20139;-81
2022/04/08 08:33:36;;;;;;;10.30;1.40;;;18.50;60.60;;;;;;4996538;28;20050;-78
2022/04/08 08:36:02;;;;;;;3.58;0.70;;;18.40;60.50;;;;;;4996425;28;20051;-78
2022/04/08 08:38:36;;;;;;;6.75;1.05;;;18.20;60.90;;;;;;4995397;28;20046;-81
2022/04/08 08:41:03;;;;;;;6.30;1.02;;;18.10;61.20;;;;;;4995741;28;20046;-81
2022/04/08 08:43:28;;;;;;;3.78;0.98;;;18.10;61.90;;;;;;4996097;28;20082;-77
2022/04/08 08:45:57;;;;;;;7.70;1.05;;;17.90;62.20;;;;;;4996763;28;20129;-80
2022/04/08 08:48:23;;;;;;;6.88;0.95;;;18.00;62.30;;;;;;4992768;28;20443;-77
2022/04/08 08:50:52;;;;;;;15.93;1.40;;;18.00;62.90;;;;;;4995636;28;20266;-78
2022/04/08 08:53:19;;;;;;;11.40;2.40;;;17.90;63.50;;;;;;4962427;28;20046;-77
2022/04/08 08:55:48;;;;;;;11.45;1.60;;;18.10;63.30;;;;;;4978606;28;20050;-76
2022/04/08 08:58:14;;;;;;;7.22;1.30;;;18.10;63.40;;;;;;4962680;28;20046;-80
2022/04/08 09:00:40;;;;;;;13.77;1.60;;;18.00;63.90;;;;;;4978969;28;20038;-77
2022/04/08 09:03:06;;;;;;;12.50;1.45;;;18.00;64.00;;;;;;4978160;28;20108;-76
2022/04/08 09:05:41;;;;;;;10.73;1.58;;;17.90;64.50;;;;;;4995692;28;20050;-73
2022/04/08 09:08:08;;;;;;;11.32;1.40;;;18.10;64.10;;;;;;4995492;28;20046;-76
2022/04/08 09:10:51;;;;;;;18.77;1.65;;;18.20;63.10;;;;;;4995844;28;20096;-79
2022/04/08 09:13:21;;;;;;;9.60;1.47;;;18.30;61.80;;;;;;4995854;28;20125;-79
2022/04/08 09:15:54;;;;;;;6.93;1.00;;;18.40;60.90;;;;;;4978603;28;20293;-77
2022/04/08 09:18:20;;;;;;;10.17;1.10;;;18.50;60.00;;;;;;4963071;28;20068;-77
2022/04/08 09:20:49;;;;;;;7.55;1.30;;;18.60;59.70;;;;;;4978700;28;20384;-79
2022/04/08 09:23:16;;;;;;;4.82;1.08;;;18.60;59.20;;;;;;4995066;28;20354;-77
2022/04/08 09:25:42;;;;;;;7.82;1.13;;;18.70;58.90;;;;;;4996391;28;20354;-78
2022/04/08 09:28:13;;;;;;;5.50;1.23;;;18.70;58.20;;;;;;4995704;28;20065;-77
2022/04/08 09:30:40;;;;;;;9.38;1.40;;;18.70;57.90;;;;;;4995227;28;20081;-76
2022/04/08 09:33:16;;;;;;;7.93;1.00;;;18.80;57.70;;;;;;4995214;28;20412;-77
2022/04/08 09:35:42;;;;;;;3.88;0.80;;;18.80;57.50;;;;;;4978276;28;20090;-79
2022/04/08 09:38:08;;;;;;;4.55;0.80;;;18.80;57.50;;;;;;4995543;28;20085;-77
2022/04/08 09:40:44;;;;;;;6.55;0.70;;;18.90;57.40;;;;;;4995514;28;20105;-77
2022/04/08 09:43:12;;;;;;;5.90;0.75;;;18.90;57.10;;;;;;4995378;28;20125;-79
2022/04/08 09:45:38;;;;;;;3.72;0.80;;;18.90;57.10;;;;;;4995273;28;20059;-77
2022/04/08 09:48:06;;;;;;;4.15;0.82;;;18.90;57.00;;;;;;4995537;28;20093;-77
2022/04/08 09:50:33;;;;;;;4.95;0.77;;;19.00;57.00;;;;;;4992652;28;20451;-79
2022/04/08 09:53:02;;;;;;;2.97;0.57;;;18.90;57.00;;;;;;4978211;28;20417;-78
2022/04/08 09:55:28;;;;;;;3.72;0.75;;;18.90;57.10;;;;;;4995368;28;20093;-78
2022/04/08 09:58:00;;;;;;;4.15;0.88;;;19.00;57.10;;;;;;4994576;28;20129;-78
2022/04/08 10:00:28;;;;;;;11.27;1.05;;;19.00;57.00;;;;;;4994971;28;20046;-76
2022/04/08 10:02:55;;;;;;;12.32;1.48;;;19.00;57.20;;;;;;4992537;28;20089;-78
2022/04/08 10:05:22;;;;;;;8.50;1.00;;;19.00;57.50;;;;;;4995465;28;20046;-76
2022/04/08 10:07:52;;;;;;;5.55;1.15;;;18.80;58.70;;;;;;4995324;28;20112;-76
2022/04/08 10:10:51;;;;;;;6.53;0.85;;;18.50;59.50;;;;;;4962365;28;20155;-76
2022/04/08 10:13:32;;;;;;;6.40;1.08;;;18.40;60.50;;;;;;4978241;28;20061;-75
2022/04/08 10:16:07;;;;;;;6.57;1.10;;;18.20;59.60;;;;;;4978059;28;20454;-78
2022/04/08 10:18:38;;;;;;;9.85;0.90;;;18.00;58.70;;;;;;4979197;28;20394;-78
2022/04/08 10:21:04;;;;;;;5.28;1.33;;;18.10;59.40;;;;;;5010354;28;20129;-75
2022/04/08 10:23:39;;;;;;;4.63;0.77;;;18.20;60.00;;;;;;4978259;28;20379;-77
2022/04/08 10:26:06;;;;;;;8.00;1.13;;;18.30;59.20;;;;;;5004767;28;20405;-79
2022/04/08 10:28:36;;;;;;;7.15;1.17;;;18.40;59.10;;;;;;4997484;28;20376;-77
2022/04/08 10:31:13;;;;;;;5.45;0.88;;;18.40;58.90;;;;;;5014456;28;20053;-81
2022/04/08 10:34:05;;;;;;;14.75;1.35;;;18.50;58.80;;;;;;5014264;28;20465;-74
2022/04/08 10:36:32;;;;;;;4.55;0.70;;;18.60;59.30;;;;;;4999963;28;20093;-78
2022/04/08 10:39:14;;;;;;;4.28;0.50;;;18.60;58.80;;;;;;4984742;28;20050;-78
2022/04/08 10:42:03;;;;;;;7.45;0.85;;;18.60;58.30;;;;;;5001427;28;20085;-76
2022/04/08 10:44:34;;;;;;;7.15;0.90;;;18.60;58.10;;;;;;4985485;28;20076;-77
2022/04/08 10:47:15;;;;;;;8.07;0.95;;;18.70;58.70;;;;;;5017771;28;20133;-79
2022/04/08 10:49:54;;;;;;;4.60;1.05;;;18.60;59.40;;;;;;5017632;28;20057;-79
2022/04/08 10:52:26;;;;;;;7.93;1.17;;;18.70;60.10;;;;;;5000781;28;20050;-77
2022/04/08 10:55:10;;;;;;;11.75;1.10;;;18.70;60.90;;;;;;5000036;28;20042;-80
2022/04/08 10:57:37;;;;;;;5.72;0.82;;;18.50;61.20;;;;;;4998183;28;20050;-76
2022/04/08 11:00:06;;;;;;;6.78;1.33;;;18.40;62.00;;;;;;4998705;28;20042;-79
2022/04/08 11:02:41;;;;;;;12.18;1.25;;;18.30;62.70;;;;;;4996747;28;20058;-78
2022/04/08 11:05:16;;;;;;;9.90;1.10;;;18.20;62.50;;;;;;4997669;28;20057;-85
2022/04/08 11:07:48;;;;;;;9.07;1.13;;;18.00;63.30;;;;;;4997277;28;20355;-79
2022/04/08 11:10:19;;;;;;;6.28;1.00;;;17.90;63.60;;;;;;4996621;28;20454;-79
2022/04/08 11:12:49;;;;;;;6.07;0.80;;;17.90;64.20;;;;;;4979063;28;20046;-77
2022/04/08 11:15:23;;;;;;;4.55;0.70;;;17.80;64.50;;;;;;5006443;28;20049;-74
2022/04/08 11:17:50;;;;;;;10.02;1.35;;;17.80;64.90;;;;;;4996899;28;20061;-77
2022/04/08 11:20:18;;;;;;;5.68;0.90;;;17.70;64.80;;;;;;5012832;28;20050;-76
2022/04/08 11:22:49;;;;;;;9.13;1.13;;;17.70;64.90;;;;;;5012456;28;20130;-78
2022/04/08 11:25:30;;;;;;;10.20;1.30;;;17.60;64.60;;;;;;4978715;28;20050;-79
2022/04/08 11:28:00;;;;;;;10.02;1.30;;;17.60;64.50;;;;;;4995723;28;20498;-79
2022/04/08 11:30:26;;;;;;;14.35;1.27;;;17.60;64.70;;;;;;4997919;28;20420;-78
2022/04/08 11:32:53;;;;;;;6.88;1.08;;;17.50;65.10;;;;;;5015008;28;20049;-76
2022/04/08 11:35:19;;;;;;;5.05;1.17;;;17.50;65.20;;;;;;4997340;28;20042;-77
2022/04/08 11:37:46;;;;;;;6.95;0.70;;;17.50;65.00;;;;;;4979171;28;20051;-77
2022/04/08 11:40:20;;;;;;;6.78;0.90;;;17.50;64.80;;;;;;5004589;28;20045;-79
2022/04/08 11:42:46;;;;;;;6.88;1.08;;;17.50;65.00;;;;;;5017226;28;20358;-74
2022/04/08 11:45:15;;;;;;;7.45;1.10;;;17.50;65.50;;;;;;5016477;28;20064;-77
2022/04/08 11:47:49;;;;;;;13.30;1.25;;;17.60;65.70;;;;;;4982636;28;20464;-77
2022/04/08 11:50:24;;;;;;;6.53;1.00;;;17.60;65.60;;;;;;5012453;28;20050;-78
2022/04/08 11:52:56;;;;;;;9.30;0.80;;;17.70;65.20;;;;;;4996866;28;20366;-77
2022/04/08 11:55:24;;;;;;;8.43;1.50;;;17.80;65.30;;;;;;4997179;28;20030;-78
2022/04/08 11:57:53;;;;;;;9.65;1.23;;;17.80;64.80;;;;;;4997232;28;20089;-73
2022/04/08 12:00:29;;;;;;;5.35;1.23;;;17.90;64.60;;;;;;4997263;28;20125;-81
2022/04/08 12:02:58;;;;;;;10.60;1.13;;;17.80;64.20;;;;;;5012533;28;20045;-78
2022/04/08 12:05:25;;;;;;;11.48;1.33;;;17.80;64.40;;;;;;5015963;28;20044;-75
2022/04/08 12:07:57;;;;;;;9.13;0.98;;;17.80;64.60;;;;;;5016212;28;20520;-79
2022/04/08 12:10:23;;;;;;;12.48;1.95;;;17.80;64.60;;;;;;4999050;28;20058;-80
2022/04/08 12:12:49;;;;;;;9.70;1.45;;;17.80;65.20;;;;;;4964923;28;20399;-79
2022/04/08 12:15:19;;;;;;;7.80;1.00;;;17.80;65.10;;;;;;4979724;28;20459;-80
2022/04/08 12:17:44;;;;;;;9.90;1.27;;;17.70;64.80;;;;;;4996457;28;20097;-79
2022/04/08 12:20:19;;;;;;;16.55;1.77;;;17.70;64.70;;;;;;4979646;28;20085;-78
2022/04/08 12:22:47;;;;;;;12.13;1.30;;;17.70;64.40;;;;;;4975273;28;20043;-80
2022/04/08 12:25:14;;;;;;;9.30;0.77;;;17.70;65.00;;;;;;4996717;28;20393;-77
2022/04/08 12:27:40;;;;;;;10.93;2.00;;;17.70;64.80;;;;;;4979390;28;20057;-77
2022/04/08 12:30:08;;;;;;;7.63;1.20;;;17.80;64.50;;;;;;4996176;28;20085;-76
2022/04/08 12:32:36;;;;;;;8.75;1.17;;;17.80;63.90;;;;;;4976629;28;20050;-75
2022/04/08 12:35:06;;;;;;;5.53;1.02;;;17.80;62.90;;;;;;5011871;28;20061;-77
2022/04/08 12:37:31;;;;;;;7.90;1.17;;;17.70;62.10;;;;;;4996998;28;20069;-73
2022/04/08 12:39:57;;;;;;;11.73;1.40;;;17.60;62.30;;;;;;4996340;28;20381;-75
2022/04/08 12:42:23;;;;;;;12.73;1.30;;;17.60;63.00;;;;;;4988394;28;20058;-76
2022/04/08 12:44:48;;;;;;;10.93;1.17;;;17.70;63.00;;;;;;4995392;28;20057;-77
2022/04/08 12:47:14;;;;;;;10.30;1.70;;;17.70;62.10;;;;;;4978756;28;20128;-75
2022/04/08 12:49:40;;;;;;;11.25;1.50;;;17.80;60.50;;;;;;4996274;28;20144;-78